createdAt,value
2022-08-04T01:56:01.061Z,23.96
2022-08-04T01:58:30.868Z,23.95
2022-08-04T02:01:02.515Z,23.90
2022-08-04T02:04:20.824Z,23.63
2022-08-04T02:06:33.516Z,23.96
2022-08-04T02:09:11.290Z,24.10
2022-08-04T02:11:42.458Z,24.19
2022-08-04T02:14:40.310Z,24.07
2022-08-04T02:17:12.493Z,24.06
2022-08-04T02:19:56.701Z,23.57
2022-08-04T02:22:29.451Z,23.26
2022-08-04T02:25:03.215Z,23.66
2022-08-04T02:27:59.893Z,23.97
2022-08-04T02:30:32.441Z,24.05
2022-08-04T02:33:04.409Z,24.07
2022-08-04T02:35:37.555Z,23.93
2022-08-04T02:38:14.004Z,23.82
2022-08-04T02:40:43.722Z,23.86
2022-08-04T02:43:16.918Z,23.73
2022-08-04T02:46:06.185Z,23.79
2022-08-04T02:48:48.795Z,23.79
2022-08-04T02:51:19.988Z,23.59
2022-08-04T02:53:50.919Z,23.16
2022-08-04T02:56:21.649Z,23.30
2022-08-04T02:58:57.786Z,23.42
2022-08-04T03:01:25.707Z,23.53
2022-08-04T03:04:07.232Z,23.64
2022-08-04T03:07:20.727Z,23.61
2022-08-04T03:10:12.787Z,23.54
2022-08-04T03:13:06.394Z,23.26
2022-08-04T03:15:56.710Z,22.01
2022-08-04T03:19:12.391Z,22.10
2022-08-04T03:22:13.041Z,22.88
2022-08-04T03:25:20.506Z,23.16
2022-08-04T03:28:18.068Z,23.19
2022-08-04T03:31:10.153Z,23.00
2022-08-04T03:34:00.381Z,22.79
2022-08-04T03:36:57.389Z,22.60
2022-08-04T03:40:10.962Z,22.75
2022-08-04T03:43:58.044Z,22.06
2022-08-04T03:46:23.989Z,22.26
2022-08-04T03:49:30.324Z,22.20
2022-08-04T03:52:25.582Z,22.49
2022-08-04T03:55:31.984Z,22.81
2022-08-04T03:58:31.868Z,22.74
2022-08-04T04:01:14.519Z,22.74
2022-08-04T04:04:04.730Z,22.90
2022-08-04T04:06:54.040Z,22.98
2022-08-04T04:09:57.808Z,23.10
2022-08-04T04:12:53.640Z,23.14
2022-08-04T04:15:38.293Z,23.15
2022-08-04T04:18:22.076Z,23.16
2022-08-04T04:21:21.589Z,23.26
2022-08-04T04:24:03.356Z,23.34
2022-08-04T04:26:53.104Z,23.30
2022-08-04T04:29:54.006Z,23.45
2022-08-04T04:32:28.958Z,23.16
2022-08-04T04:35:12.511Z,23.18
2022-08-04T04:37:58.023Z,22.87
2022-08-04T04:40:35.733Z,23.15
2022-08-04T04:43:51.708Z,23.16
2022-08-04T04:46:28.213Z,23.25
2022-08-04T04:49:04.346Z,22.98
2022-08-04T04:51:38.719Z,23.20
2022-08-04T04:54:26.429Z,22.94
2022-08-04T04:57:04.548Z,23.23
2022-08-04T04:59:35.937Z,22.68
2022-08-04T05:02:35.917Z,23.17
2022-08-04T05:05:34.678Z,23.44
2022-08-04T05:08:45.010Z,23.59
2022-08-04T05:11:36.456Z,23.53
2022-08-04T05:14:35.875Z,23.54
2022-08-04T05:17:03.106Z,23.67
2022-08-04T05:19:52.870Z,23.81
2022-08-04T05:22:25.433Z,23.95
2022-08-04T05:25:01.939Z,23.89
2022-08-04T05:27:40.183Z,23.80
2022-08-04T05:30:10.025Z,24.05
2022-08-04T05:32:45.086Z,24.17
2022-08-04T05:35:52.083Z,23.92
2022-08-04T05:38:07.656Z,24.02
2022-08-04T05:40:36.075Z,24.23
2022-08-04T05:43:07.795Z,24.39
2022-08-04T05:45:39.005Z,24.51
2022-08-04T05:48:10.069Z,24.64
2022-08-04T05:50:39.380Z,24.83
2022-08-04T05:53:10.981Z,25.01
2022-08-04T05:55:56.783Z,25.12
2022-08-04T05:58:31.336Z,25.22
2022-08-04T06:01:01.974Z,25.21
2022-08-04T06:03:32.317Z,25.34
2022-08-04T06:06:01.964Z,25.45
2022-08-04T06:08:31.400Z,25.56
2022-08-04T06:11:06.180Z,25.67
2022-08-04T06:13:48.608Z,25.68
2022-08-04T06:16:29.006Z,25.78
2022-08-04T06:20:00.116Z,25.89
2022-08-04T06:21:53.031Z,26.00
2022-08-04T06:24:24.860Z,26.00
2022-08-04T06:26:53.794Z,26.19
2022-08-04T06:29:28.331Z,26.28
2022-08-04T06:32:26.713Z,26.36
2022-08-04T06:34:53.290Z,26.48
2022-08-04T06:37:41.061Z,26.56
2022-08-04T06:40:30.019Z,26.72
2022-08-04T06:43:00.803Z,26.81
2022-08-04T06:45:31.236Z,26.78
2022-08-04T06:48:01.211Z,26.93
2022-08-04T06:51:27.497Z,27.15
2022-08-04T06:53:19.158Z,27.30
2022-08-04T06:55:48.736Z,27.47
2022-08-04T06:58:18.670Z,27.61
2022-08-04T07:00:49.558Z,27.67
2022-08-04T07:03:19.425Z,27.86
2022-08-04T07:05:49.316Z,27.98
2022-08-04T07:08:18.123Z,28.07
2022-08-04T07:10:46.701Z,28.16
2022-08-04T07:13:15.919Z,28.04
2022-08-04T07:15:47.751Z,28.00
2022-08-04T07:18:16.324Z,28.03
2022-08-04T07:20:45.033Z,28.01
2022-08-04T07:23:17.658Z,28.22
2022-08-04T07:26:00.574Z,28.28
2022-08-04T07:28:40.793Z,28.49
2022-08-04T07:31:34.513Z,28.51
2022-08-04T07:34:21.437Z,28.54
2022-08-04T07:36:53.008Z,28.99
2022-08-04T07:39:28.345Z,29.39
2022-08-04T07:41:58.816Z,29.42
2022-08-04T07:44:27.556Z,29.70
2022-08-04T07:46:56.951Z,30.05
2022-08-04T07:49:54.351Z,30.00
2022-08-04T07:52:15.357Z,30.38
2022-08-04T07:54:44.585Z,30.66
2022-08-04T07:57:20.942Z,30.70
2022-08-04T08:00:00.765Z,31.59
2022-08-04T08:02:30.587Z,31.64
2022-08-04T08:04:58.995Z,31.87
2022-08-04T08:07:27.112Z,32.22
2022-08-04T08:09:55.206Z,32.57
2022-08-04T08:12:37.542Z,32.19
2022-08-04T08:15:15.933Z,32.72
2022-08-04T08:17:58.902Z,32.83
2022-08-04T08:20:30.483Z,33.23
2022-08-04T08:22:59.602Z,33.59
2022-08-04T08:25:28.417Z,34.04
2022-08-04T08:27:56.920Z,34.28
2022-08-04T08:30:31.443Z,34.54
2022-08-04T08:33:05.534Z,34.92
2022-08-04T08:35:47.414Z,34.91
2022-08-04T08:38:30.169Z,35.20
2022-08-04T08:41:13.739Z,35.71
2022-08-04T08:44:30.093Z,35.89
2022-08-04T08:47:10.863Z,36.04
2022-08-04T08:50:04.048Z,36.34
2022-08-04T08:53:01.528Z,35.48
2022-08-04T08:55:42.987Z,36.41
2022-08-04T08:58:32.674Z,36.76
2022-08-04T09:01:11.495Z,36.70
2022-08-04T09:04:22.738Z,36.98
2022-08-04T09:07:08.362Z,36.84
2022-08-04T09:09:48.559Z,37.13
2022-08-04T09:12:25.512Z,37.48
2022-08-04T09:15:01.858Z,38.10
2022-08-04T09:17:34.397Z,37.52
2022-08-04T09:20:07.400Z,38.05
2022-08-04T09:22:44.876Z,37.74
2022-08-04T09:25:19.450Z,38.69
2022-08-04T09:27:52.632Z,37.87
2022-08-04T09:30:23.113Z,38.61
2022-08-04T09:33:03.839Z,38.94
2022-08-04T09:35:42.162Z,38.94
2022-08-04T09:38:22.191Z,38.87
2022-08-04T09:40:58.593Z,38.30
2022-08-04T09:43:59.285Z,38.90
2022-08-04T09:46:34.764Z,38.60
2022-08-04T09:49:11.940Z,38.89
2022-08-04T09:51:59.836Z,38.43
2022-08-04T09:54:42.614Z,39.37
2022-08-04T09:57:18.487Z,39.71
2022-08-04T09:59:58.446Z,39.29
2022-08-04T10:02:29.459Z,39.91
2022-08-04T10:04:59.884Z,38.99
2022-08-04T10:08:04.772Z,39.58
2022-08-04T10:10:48.802Z,39.46
2022-08-04T10:13:27.132Z,37.08
2022-08-04T10:16:07.271Z,38.78
2022-08-04T10:18:50.919Z,37.49
2022-08-04T10:21:27.950Z,37.33
2022-08-04T10:24:32.121Z,37.61
2022-08-04T10:27:08.780Z,38.85
2022-08-04T10:29:43.919Z,38.83
2022-08-04T10:32:19.502Z,38.12
2022-08-04T10:35:02.586Z,39.31
2022-08-04T10:37:53.291Z,39.46
2022-08-04T10:40:39.682Z,38.96
2022-08-04T10:43:21.021Z,39.71
2022-08-04T10:45:58.027Z,38.96
2022-08-04T10:48:37.596Z,39.29
2022-08-04T10:51:22.723Z,39.24
2022-08-04T10:53:58.372Z,38.49
2022-08-04T10:56:34.039Z,38.44
2022-08-04T10:59:10.531Z,38.11
2022-08-04T11:01:50.757Z,37.34
2022-08-04T11:04:38.904Z,38.42
2022-08-04T11:07:08.431Z,38.46
2022-08-04T11:09:37.067Z,37.68
2022-08-04T11:12:11.309Z,38.44
2022-08-04T11:14:48.033Z,38.51
2022-08-04T11:17:22.298Z,37.30
2022-08-04T11:20:33.610Z,38.79
2022-08-04T11:23:04.165Z,39.48
2022-08-04T11:25:41.243Z,40.11
2022-08-04T11:28:15.354Z,40.29
2022-08-04T11:30:53.837Z,38.88
2022-08-04T11:33:28.559Z,39.39
2022-08-04T11:36:03.736Z,39.35
2022-08-04T11:38:38.540Z,40.33
2022-08-04T11:41:11.957Z,40.00
2022-08-04T11:44:02.765Z,39.04
2022-08-04T11:46:40.653Z,39.63
2022-08-04T11:49:12.985Z,40.34
2022-08-04T11:51:44.203Z,40.50
2022-08-04T11:54:13.756Z,40.33
2022-08-04T11:56:42.223Z,39.35
2022-08-04T11:59:10.407Z,38.35
2022-08-04T12:02:01.886Z,38.32
2022-08-04T12:04:47.344Z,39.81
2022-08-04T12:07:31.391Z,40.31
2022-08-04T12:10:11.136Z,40.31
2022-08-04T12:12:45.026Z,38.42
2022-08-04T12:15:20.216Z,39.62
2022-08-04T12:17:57.729Z,40.01
2022-08-04T12:20:31.683Z,40.69
2022-08-04T12:23:24.235Z,39.36
2022-08-04T12:25:57.204Z,39.20
2022-08-04T12:28:46.195Z,39.78
2022-08-04T12:31:22.102Z,40.05
2022-08-04T12:34:04.403Z,39.53
2022-08-04T12:36:40.341Z,40.23
2022-08-04T12:39:13.749Z,40.40
2022-08-04T12:41:46.852Z,40.80
2022-08-04T12:44:36.817Z,39.96
2022-08-04T12:47:27.556Z,37.64
2022-08-04T12:50:01.982Z,38.49
2022-08-04T12:55:21.431Z,37.44
2022-08-04T12:57:52.455Z,38.27
2022-08-04T13:00:33.166Z,38.82
2022-08-04T13:03:09.706Z,38.00
2022-08-04T13:05:41.899Z,37.63
2022-08-04T13:08:10.317Z,38.55
2022-08-04T13:10:39.549Z,38.06
2022-08-04T13:13:12.585Z,37.06
2022-08-04T13:15:47.467Z,37.57
2022-08-04T13:18:29.654Z,37.69
2022-08-04T13:21:20.133Z,37.66
2022-08-04T13:24:08.296Z,38.89
2022-08-04T13:26:54.664Z,38.01
2022-08-04T13:30:00.227Z,38.03
2022-08-04T13:32:25.565Z,38.71
2022-08-04T13:34:55.450Z,38.80
2022-08-04T13:37:27.793Z,37.81
2022-08-04T13:39:58.624Z,38.13
2022-08-04T13:42:28.094Z,38.28
2022-08-04T13:45:00.723Z,38.02
2022-08-04T13:47:31.531Z,37.54
2022-08-04T13:50:16.448Z,36.84
2022-08-04T13:52:46.979Z,36.90
2022-08-04T13:55:27.013Z,37.58
2022-08-04T13:57:59.730Z,38.29
2022-08-04T14:00:38.441Z,38.31
2022-08-04T14:03:23.937Z,37.66
2022-08-04T14:06:15.044Z,37.91
2022-08-04T14:08:53.178Z,38.10
2022-08-04T14:12:09.446Z,38.93
2022-08-04T14:14:19.368Z,39.14
2022-08-04T14:17:05.885Z,38.85
2022-08-04T14:19:52.472Z,38.55
2022-08-04T14:22:31.610Z,38.14
2022-08-04T14:25:04.189Z,38.51
2022-08-04T14:27:42.480Z,38.08
2022-08-04T14:30:22.979Z,37.18
2022-08-04T14:34:02.005Z,36.73
2022-08-04T14:35:58.551Z,37.06
2022-08-04T14:38:43.434Z,36.55
2022-08-04T14:41:13.257Z,36.30
2022-08-04T14:43:51.872Z,36.68
2022-08-04T14:46:20.322Z,36.59
2022-08-04T14:49:10.886Z,36.67
2022-08-04T14:51:42.155Z,37.41
2022-08-04T14:54:17.303Z,38.00
2022-08-04T14:56:55.541Z,38.24
2022-08-04T14:59:24.546Z,37.82
2022-08-04T15:02:00.371Z,37.08
2022-08-04T15:04:31.341Z,37.38
2022-08-04T15:07:00.321Z,37.66
2022-08-04T15:09:29.142Z,37.61
2022-08-04T15:11:58.544Z,36.92
2022-08-04T15:14:37.063Z,37.05
2022-08-04T15:17:11.952Z,37.22
2022-08-04T15:19:40.628Z,36.89
2022-08-04T15:22:23.486Z,37.49
2022-08-04T15:24:54.847Z,37.34
2022-08-04T15:27:28.367Z,37.43
2022-08-04T15:30:03.054Z,37.06
2022-08-04T15:32:33.283Z,36.99
2022-08-04T15:35:06.567Z,36.80
2022-08-04T15:37:47.462Z,37.39
2022-08-04T15:40:26.933Z,37.70
2022-08-04T15:43:32.133Z,37.15
2022-08-04T15:46:41.860Z,37.34
2022-08-04T15:48:52.321Z,37.43
2022-08-04T15:51:31.808Z,36.77
2022-08-04T15:54:27.987Z,36.87
2022-08-04T15:57:01.317Z,36.58
2022-08-04T16:00:00.310Z,36.90
2022-08-04T16:02:39.191Z,36.95
2022-08-04T16:05:37.240Z,37.09
2022-08-04T16:08:18.592Z,37.10
2022-08-04T16:10:51.288Z,37.01
2022-08-04T16:13:22.269Z,37.29
2022-08-04T16:15:54.309Z,37.38
2022-08-04T16:18:40.818Z,37.43
2022-08-04T16:21:20.125Z,37.02
2022-08-04T16:24:02.240Z,37.12
2022-08-04T16:26:46.148Z,36.82
2022-08-04T16:29:36.466Z,36.66
2022-08-04T16:32:23.645Z,36.75
2022-08-04T16:34:59.692Z,37.14
2022-08-04T16:37:33.727Z,37.39
2022-08-04T16:40:34.057Z,37.10
2022-08-04T16:43:05.414Z,36.98
2022-08-04T16:45:46.924Z,36.86
2022-08-04T16:48:17.500Z,36.71
2022-08-04T16:50:51.510Z,36.69
2022-08-04T16:54:02.577Z,36.97
2022-08-04T16:56:10.535Z,37.06
2022-08-04T16:58:53.016Z,36.84
2022-08-04T17:01:33.962Z,36.45
2022-08-04T17:04:08.481Z,36.00
2022-08-04T17:06:38.588Z,36.34
2022-08-04T17:09:07.653Z,35.85
2022-08-04T17:11:35.408Z,35.68
2022-08-04T17:14:05.693Z,35.50
2022-08-04T17:16:36.290Z,35.49
2022-08-04T17:19:06.840Z,35.65
2022-08-04T17:21:49.083Z,35.66
2022-08-04T17:24:18.094Z,35.89
2022-08-04T17:26:53.511Z,35.69
2022-08-04T17:29:26.168Z,35.72
2022-08-04T17:32:18.701Z,35.64
2022-08-04T17:34:52.514Z,35.59
2022-08-04T17:37:39.766Z,35.71
2022-08-04T17:40:18.466Z,35.65
2022-08-04T17:43:03.347Z,35.44
2022-08-04T17:46:15.491Z,35.27
2022-08-04T17:49:11.898Z,35.37
2022-08-04T17:52:05.072Z,35.31
2022-08-04T17:54:39.890Z,35.47
2022-08-04T17:57:20.635Z,35.25
2022-08-04T17:59:57.561Z,35.20
2022-08-04T18:02:32.445Z,35.21
2022-08-04T18:05:06.956Z,34.76
2022-08-04T18:08:35.058Z,34.52
2022-08-04T18:10:44.468Z,34.71
2022-08-04T18:13:25.422Z,34.85
2022-08-04T18:16:03.198Z,34.66
2022-08-04T18:18:31.159Z,34.36
2022-08-04T18:21:03.227Z,34.02
2022-08-04T18:23:34.132Z,33.99
2022-08-04T18:26:11.466Z,34.11
2022-08-04T18:28:41.986Z,33.80
2022-08-04T18:31:12.383Z,33.83
2022-08-04T18:33:56.931Z,33.74
2022-08-04T18:36:32.751Z,33.36
2022-08-04T18:39:12.721Z,33.26
2022-08-04T18:42:01.676Z,33.34
2022-08-04T18:44:31.535Z,33.17
2022-08-04T18:47:19.467Z,33.12
2022-08-04T18:50:59.578Z,33.45
2022-08-04T18:52:45.196Z,33.46
2022-08-04T18:55:55.322Z,32.91
2022-08-04T18:58:07.273Z,32.90
2022-08-04T19:00:45.108Z,32.76
2022-08-04T19:03:16.243Z,32.89
2022-08-04T19:05:52.444Z,32.99
2022-08-04T19:11:37.133Z,32.98
2022-08-04T19:13:58.883Z,32.85
2022-08-04T19:16:28.453Z,32.74
2022-08-04T19:18:56.882Z,32.74
2022-08-04T19:22:00.835Z,32.29
2022-08-04T19:24:28.692Z,32.31
2022-08-04T19:27:07.599Z,32.47
2022-08-04T19:29:41.183Z,32.54
2022-08-04T19:32:14.700Z,32.55
2022-08-04T19:34:46.031Z,32.43
2022-08-04T19:37:57.272Z,32.29
2022-08-04T19:40:05.737Z,31.89
2022-08-04T19:42:35.010Z,32.01
2022-08-04T19:45:03.255Z,31.14
2022-08-04T19:48:17.108Z,31.37
2022-08-04T19:50:19.275Z,31.65
2022-08-04T19:52:51.777Z,31.85
2022-08-04T19:58:13.225Z,31.98
2022-08-04T20:00:44.630Z,31.77
2022-08-04T20:03:20.287Z,31.80
2022-08-04T20:05:53.219Z,31.66
2022-08-04T20:08:23.887Z,31.68
2022-08-04T20:10:54.664Z,31.60
2022-08-04T20:13:30.956Z,31.61
2022-08-04T20:16:14.927Z,31.56
2022-08-04T20:18:59.541Z,31.41
2022-08-04T20:21:54.050Z,31.40
2022-08-04T20:24:40.036Z,31.25
2022-08-04T20:27:11.644Z,31.17
2022-08-04T20:29:48.959Z,30.82
2022-08-04T20:32:19.755Z,30.76
2022-08-04T20:34:48.490Z,30.80
2022-08-04T20:37:16.767Z,30.75
2022-08-04T20:39:44.739Z,30.85
2022-08-04T20:42:27.385Z,30.85
2022-08-04T20:44:57.401Z,30.69
2022-08-04T20:47:26.699Z,30.78
2022-08-04T20:49:59.081Z,30.71
2022-08-04T20:52:30.233Z,30.67
2022-08-04T20:54:58.782Z,30.65
2022-08-04T20:57:49.459Z,30.67
2022-08-04T21:00:17.552Z,30.68
2022-08-04T21:02:54.545Z,30.61
2022-08-04T21:05:23.149Z,30.20
2022-08-04T21:07:51.181Z,29.68
2022-08-04T21:10:21.886Z,29.77
2022-08-04T21:12:50.469Z,29.85
2022-08-04T21:15:26.384Z,30.02
2022-08-04T21:18:14.520Z,30.03
2022-08-04T21:20:45.039Z,29.98
2022-08-04T21:23:16.144Z,29.93
2022-08-04T21:25:45.536Z,29.69
2022-08-04T21:28:20.593Z,29.65
2022-08-04T21:30:52.759Z,29.70
2022-08-04T21:33:22.985Z,29.63
2022-08-04T21:35:54.211Z,29.37
2022-08-04T21:38:27.921Z,29.39
2022-08-04T21:41:11.597Z,29.44
2022-08-04T21:43:48.173Z,29.45
2022-08-04T21:46:18.302Z,29.29
2022-08-04T21:48:48.773Z,29.29
2022-08-04T21:51:21.683Z,29.18
2022-08-04T21:54:08.887Z,29.02
2022-08-04T21:56:37.934Z,29.04
2022-08-04T21:59:11.576Z,29.04
2022-08-04T22:01:50.101Z,29.09
2022-08-04T22:04:19.363Z,29.04
2022-08-04T22:06:47.592Z,29.01
2022-08-04T22:09:22.028Z,28.90
2022-08-04T22:11:51.913Z,28.72
2022-08-04T22:17:13.309Z,28.28
2022-08-04T22:19:55.572Z,28.44
2022-08-04T22:22:25.946Z,28.46
2022-08-04T22:24:55.383Z,28.43
2022-08-04T22:27:47.435Z,28.38
2022-08-04T22:30:17.371Z,28.10
2022-08-04T22:32:47.469Z,28.16
2022-08-04T22:35:36.396Z,28.01
2022-08-04T22:38:28.069Z,27.54
2022-08-04T22:40:58.028Z,27.65
2022-08-04T22:43:32.951Z,26.99
2022-08-04T22:46:05.299Z,27.47
2022-08-04T22:48:37.128Z,27.79
2022-08-04T22:51:06.992Z,27.84
2022-08-04T22:53:36.000Z,27.72
2022-08-04T22:56:10.201Z,27.66
2022-08-04T22:58:44.730Z,27.72
2022-08-04T23:01:14.985Z,27.76
2022-08-04T23:03:51.038Z,27.78
2022-08-04T23:06:25.591Z,27.72
2022-08-04T23:08:56.851Z,27.22
2022-08-04T23:11:34.610Z,27.37
2022-08-04T23:14:05.207Z,27.41
2022-08-04T23:16:40.755Z,27.43
2022-08-04T23:19:15.142Z,26.79
2022-08-04T23:21:47.679Z,26.65
2022-08-04T23:24:29.665Z,26.97
2022-08-04T23:26:58.133Z,26.98
2022-08-04T23:29:26.270Z,27.08
2022-08-04T23:31:59.434Z,27.20
2022-08-04T23:34:30.072Z,27.24
2022-08-04T23:36:59.139Z,27.22
2022-08-04T23:40:03.436Z,27.16
2022-08-04T23:42:20.862Z,27.03
2022-08-04T23:44:54.582Z,27.06
2022-08-04T23:48:14.777Z,27.11
2022-08-04T23:50:12.648Z,27.13
2022-08-04T23:52:40.606Z,27.17
2022-08-04T23:55:19.044Z,27.21
2022-08-04T23:58:06.033Z,27.03
